sensor_id;sensor_type;location;lat;lon;timestamp;temperature;humidity
3005;DHT22;1512;51.486;6.610;2023-03-25T00:03:45;10.10;1.00
3005;DHT22;1512;51.486;6.610;2023-03-25T00:07:56;10.10;1.00
3005;DHT22;1512;51.486;6.610;2023-03-25T00:12:05;10.10;1.00
3005;DHT22;1512;51.486;6.610;2023-03-25T00:16:33;10.10;1.00
3005;DHT22;1512;51.486;6.610;2023-03-25T00:20:43;10.20;1.00
3005;DHT22;1512;51.486;6.610;2023-03-25T00:24:52;10.10;1.00
3005;DHT22;1512;51.486;6.610;2023-03-25T00:29:01;10.10;1.00
3005;DHT22;1512;51.486;6.610;2023-03-25T00:33:10;10.10;1.00
3005;DHT22;1512;51.486;6.610;2023-03-25T00:37:20;10.20;1.00
3005;DHT22;1512;51.486;6.610;2023-03-25T00:41:29;10.10;1.00
3005;DHT22;1512;51.486;6.610;2023-03-25T00:45:37;10.20;1.00
3005;DHT22;1512;51.486;6.610;2023-03-25T00:49:47;10.10;1.00
3005;DHT22;1512;51.486;6.610;2023-03-25T00:53:57;10.20;1.00
3005;DHT22;1512;51.486;6.610;2023-03-25T00:58:10;10.20;1.00
3005;DHT22;1512;51.486;6.610;2023-03-25T01:02:18;10.20;1.00
3005;DHT22;1512;51.486;6.610;2023-03-25T01:06:33;10.20;1.00
3005;DHT22;1512;51.486;6.610;2023-03-25T01:10:42;10.20;1.00
3005;DHT22;1512;51.486;6.610;2023-03-25T01:14:52;10.10;1.00
3005;DHT22;1512;51.486;6.610;2023-03-25T01:19:00;10.20;1.00
3005;DHT22;1512;51.486;6.610;2023-03-25T01:23:09;10.20;1.00
3005;DHT22;1512;51.486;6.610;2023-03-25T01:27:18;10.30;1.00
3005;DHT22;1512;51.486;6.610;2023-03-25T01:31:26;10.30;1.00
3005;DHT22;1512;51.486;6.610;2023-03-25T01:35:37;10.30;1.00
3005;DHT22;1512;51.486;6.610;2023-03-25T01:39:45;10.20;1.00
3005;DHT22;1512;51.486;6.610;2023-03-25T01:44:09;10.20;1.00
3005;DHT22;1512;51.486;6.610;2023-03-25T01:48:28;10.20;1.00
3005;DHT22;1512;51.486;6.610;2023-03-25T01:52:32;10.30;1.00
3005;DHT22;1512;51.486;6.610;2023-03-25T01:56:41;10.30;1.00
3005;DHT22;1512;51.486;6.610;2023-03-25T02:00:51;10.30;1.00
3005;DHT22;1512;51.486;6.610;2023-03-25T02:09:25;10.20;1.00
3005;DHT22;1512;51.486;6.610;2023-03-25T02:13:35;10.10;1.00
3005;DHT22;1512;51.486;6.610;2023-03-25T02:18:07;10.30;1.00
3005;DHT22;1512;51.486;6.610;2023-03-25T02:27:18;10.10;1.00
3005;DHT22;1512;51.486;6.610;2023-03-25T02:31:35;10.10;1.00
3005;DHT22;1512;51.486;6.610;2023-03-25T02:40:19;9.90;1.00
3005;DHT22;1512;51.486;6.610;2023-03-25T02:49:08;9.80;1.00
3005;DHT22;1512;51.486;6.610;2023-03-25T02:53:32;9.80;1.00
3005;DHT22;1512;51.486;6.610;2023-03-25T02:57:34;9.90;1.00
3005;DHT22;1512;51.486;6.610;2023-03-25T03:01:45;9.80;1.00
3005;DHT22;1512;51.486;6.610;2023-03-25T03:06:03;9.90;1.00
3005;DHT22;1512;51.486;6.610;2023-03-25T03:10:12;9.80;1.00
3005;DHT22;1512;51.486;6.610;2023-03-25T03:23:43;9.80;1.00
3005;DHT22;1512;51.486;6.610;2023-03-25T03:27:51;9.80;1.00
3005;DHT22;1512;51.486;6.610;2023-03-25T03:32:07;9.80;1.00
3005;DHT22;1512;51.486;6.610;2023-03-25T03:36:23;9.70;1.00
3005;DHT22;1512;51.486;6.610;2023-03-25T03:40:32;9.80;1.00
3005;DHT22;1512;51.486;6.610;2023-03-25T03:44:45;9.80;1.00
3005;DHT22;1512;51.486;6.610;2023-03-25T03:49:00;9.70;1.00
3005;DHT22;1512;51.486;6.610;2023-03-25T03:57:23;9.70;1.00
3005;DHT22;1512;51.486;6.610;2023-03-25T04:01:35;9.70;1.00
3005;DHT22;1512;51.486;6.610;2023-03-25T04:05:48;9.60;1.00
3005;DHT22;1512;51.486;6.610;2023-03-25T04:10:17;9.60;1.00
3005;DHT22;1512;51.486;6.610;2023-03-25T04:14:26;9.60;1.00
3005;DHT22;1512;51.486;6.610;2023-03-25T04:18:35;9.60;1.00
3005;DHT22;1512;51.486;6.610;2023-03-25T04:22:44;9.60;1.00
3005;DHT22;1512;51.486;6.610;2023-03-25T04:26:52;9.60;1.00
3005;DHT22;1512;51.486;6.610;2023-03-25T04:31:03;9.60;1.00
3005;DHT22;1512;51.486;6.610;2023-03-25T04:35:14;9.70;1.00
3005;DHT22;1512;51.486;6.610;2023-03-25T04:39:23;9.60;1.00
3005;DHT22;1512;51.486;6.610;2023-03-25T04:43:32;9.60;1.00
3005;DHT22;1512;51.486;6.610;2023-03-25T04:47:41;9.60;1.00
3005;DHT22;1512;51.486;6.610;2023-03-25T04:51:53;9.70;1.00
3005;DHT22;1512;51.486;6.610;2023-03-25T04:56:04;9.60;1.00
3005;DHT22;1512;51.486;6.610;2023-03-25T05:00:15;9.60;1.00
3005;DHT22;1512;51.486;6.610;2023-03-25T05:04:24;9.60;1.00
3005;DHT22;1512;51.486;6.610;2023-03-25T05:08:32;9.60;1.00
3005;DHT22;1512;51.486;6.610;2023-03-25T05:13:02;9.60;1.00
3005;DHT22;1512;51.486;6.610;2023-03-25T05:17:10;9.60;1.00
3005;DHT22;1512;51.486;6.610;2023-03-25T05:21:19;9.60;1.00
3005;DHT22;1512;51.486;6.610;2023-03-25T05:25:29;9.70;1.00
3005;DHT22;1512;51.486;6.610;2023-03-25T05:29:39;9.70;1.00
3005;DHT22;1512;51.486;6.610;2023-03-25T05:33:50;9.60;1.00
3005;DHT22;1512;51.486;6.610;2023-03-25T05:37:59;9.60;1.00
3005;DHT22;1512;51.486;6.610;2023-03-25T05:42:08;9.60;1.00
3005;DHT22;1512;51.486;6.610;2023-03-25T05:46:17;9.60;1.00
3005;DHT22;1512;51.486;6.610;2023-03-25T05:50:27;9.60;1.00
3005;DHT22;1512;51.486;6.610;2023-03-25T05:54:35;9.70;1.00
3005;DHT22;1512;51.486;6.610;2023-03-25T05:58:47;9.70;1.00
3005;DHT22;1512;51.486;6.610;2023-03-25T06:02:56;9.70;1.00
3005;DHT22;1512;51.486;6.610;2023-03-25T06:07:10;9.70;1.00
3005;DHT22;1512;51.486;6.610;2023-03-25T06:11:23;9.80;1.00
3005;DHT22;1512;51.486;6.610;2023-03-25T06:15:32;9.80;1.00
3005;DHT22;1512;51.486;6.610;2023-03-25T06:19:42;9.80;1.00
3005;DHT22;1512;51.486;6.610;2023-03-25T06:23:52;9.70;1.00
3005;DHT22;1512;51.486;6.610;2023-03-25T06:28:01;9.80;1.00
3005;DHT22;1512;51.486;6.610;2023-03-25T06:32:13;9.80;1.00
3005;DHT22;1512;51.486;6.610;2023-03-25T06:36:41;9.90;1.00
3005;DHT22;1512;51.486;6.610;2023-03-25T06:40:50;9.90;1.00
3005;DHT22;1512;51.486;6.610;2023-03-25T06:44:59;9.90;1.00
3005;DHT22;1512;51.486;6.610;2023-03-25T06:49:09;10.00;1.00
3005;DHT22;1512;51.486;6.610;2023-03-25T06:53:18;9.90;1.00
3005;DHT22;1512;51.486;6.610;2023-03-25T06:57:27;9.90;1.00
3005;DHT22;1512;51.486;6.610;2023-03-25T07:01:55;10.00;1.00
3005;DHT22;1512;51.486;6.610;2023-03-25T07:06:05;10.00;1.00
3005;DHT22;1512;51.486;6.610;2023-03-25T07:10:14;10.00;1.00
3005;DHT22;1512;51.486;6.610;2023-03-25T07:14:22;10.00;1.00
3005;DHT22;1512;51.486;6.610;2023-03-25T07:18:31;10.00;1.00
3005;DHT22;1512;51.486;6.610;2023-03-25T07:22:40;10.00;1.00
3005;DHT22;1512;51.486;6.610;2023-03-25T07:26:48;10.00;1.00
3005;DHT22;1512;51.486;6.610;2023-03-25T07:30:57;10.00;1.00
3005;DHT22;1512;51.486;6.610;2023-03-25T07:39:27;9.90;1.00
3005;DHT22;1512;51.486;6.610;2023-03-25T07:43:36;9.90;1.00
3005;DHT22;1512;51.486;6.610;2023-03-25T07:47:45;10.00;1.00
3005;DHT22;1512;51.486;6.610;2023-03-25T07:51:55;10.00;1.00
3005;DHT22;1512;51.486;6.610;2023-03-25T07:56:05;10.10;1.00
3005;DHT22;1512;51.486;6.610;2023-03-25T08:00:14;10.20;1.00
3005;DHT22;1512;51.486;6.610;2023-03-25T08:04:22;10.40;1.00
3005;DHT22;1512;51.486;6.610;2023-03-25T08:08:31;10.40;1.00
3005;DHT22;1512;51.486;6.610;2023-03-25T08:12:40;10.40;1.00
3005;DHT22;1512;51.486;6.610;2023-03-25T08:16:49;10.40;1.00
3005;DHT22;1512;51.486;6.610;2023-03-25T08:21:17;10.40;1.00
3005;DHT22;1512;51.486;6.610;2023-03-25T08:25:33;10.50;1.00
3005;DHT22;1512;51.486;6.610;2023-03-25T08:29:43;10.50;1.00
3005;DHT22;1512;51.486;6.610;2023-03-25T08:33:53;10.60;1.00
3005;DHT22;1512;51.486;6.610;2023-03-25T08:38:03;10.70;1.00
3005;DHT22;1512;51.486;6.610;2023-03-25T08:42:13;10.60;1.00
3005;DHT22;1512;51.486;6.610;2023-03-25T08:46:27;10.60;1.00
3005;DHT22;1512;51.486;6.610;2023-03-25T08:50:56;10.60;1.00
3005;DHT22;1512;51.486;6.610;2023-03-25T08:55:09;10.50;1.00
3005;DHT22;1512;51.486;6.610;2023-03-25T08:59:21;10.60;1.00
3005;DHT22;1512;51.486;6.610;2023-03-25T09:03:33;10.60;1.00
3005;DHT22;1512;51.486;6.610;2023-03-25T09:07:46;10.60;1.00
3005;DHT22;1512;51.486;6.610;2023-03-25T09:11:55;10.70;1.00
3005;DHT22;1512;51.486;6.610;2023-03-25T09:16:04;10.60;1.00
3005;DHT22;1512;51.486;6.610;2023-03-25T09:20:13;10.50;1.00
3005;DHT22;1512;51.486;6.610;2023-03-25T09:24:23;10.40;1.00
3005;DHT22;1512;51.486;6.610;2023-03-25T09:32:48;10.40;1.00
3005;DHT22;1512;51.486;6.610;2023-03-25T09:36:57;10.50;1.00
3005;DHT22;1512;51.486;6.610;2023-03-25T09:41:34;10.60;1.00
3005;DHT22;1512;51.486;6.610;2023-03-25T09:45:45;10.60;1.00
3005;DHT22;1512;51.486;6.610;2023-03-25T09:49:56;10.70;1.00
3005;DHT22;1512;51.486;6.610;2023-03-25T09:54:31;10.60;1.00
3005;DHT22;1512;51.486;6.610;2023-03-25T09:58:47;10.40;1.00
3005;DHT22;1512;51.486;6.610;2023-03-25T10:12:25;10.40;1.00
3005;DHT22;1512;51.486;6.610;2023-03-25T10:25:08;10.50;1.00
3005;DHT22;1512;51.486;6.610;2023-03-25T10:29:17;10.40;1.00
3005;DHT22;1512;51.486;6.610;2023-03-25T10:33:36;10.20;1.00
3005;DHT22;1512;51.486;6.610;2023-03-25T10:37:47;10.00;1.00
3005;DHT22;1512;51.486;6.610;2023-03-25T10:42:02;10.00;1.00
3005;DHT22;1512;51.486;6.610;2023-03-25T10:46:33;10.00;1.00
3005;DHT22;1512;51.486;6.610;2023-03-25T10:50:44;10.00;1.00
3005;DHT22;1512;51.486;6.610;2023-03-25T10:54:55;10.00;1.00
3005;DHT22;1512;51.486;6.610;2023-03-25T10:59:54;9.90;1.00
3005;DHT22;1512;51.486;6.610;2023-03-25T11:03:19;10.00;1.00
3005;DHT22;1512;51.486;6.610;2023-03-25T11:07:45;10.00;1.00
3005;DHT22;1512;51.486;6.610;2023-03-25T11:11:51;10.20;1.00
3005;DHT22;1512;51.486;6.610;2023-03-25T11:16:02;10.50;1.00
3005;DHT22;1512;51.486;6.610;2023-03-25T11:20:24;10.90;1.00
3005;DHT22;1512;51.486;6.610;2023-03-25T11:24:33;11.60;1.00
3005;DHT22;1512;51.486;6.610;2023-03-25T11:28:48;11.90;1.00
3005;DHT22;1512;51.486;6.610;2023-03-25T11:33:03;11.90;1.00
3005;DHT22;1512;51.486;6.610;2023-03-25T11:37:18;12.10;1.00
3005;DHT22;1512;51.486;6.610;2023-03-25T11:41:34;12.10;1.00
3005;DHT22;1512;51.486;6.610;2023-03-25T11:45:38;12.30;1.00
3005;DHT22;1512;51.486;6.610;2023-03-25T11:49:49;12.50;1.00
3005;DHT22;1512;51.486;6.610;2023-03-25T11:54:18;12.60;1.00
3005;DHT22;1512;51.486;6.610;2023-03-25T11:58:31;12.50;1.00
3005;DHT22;1512;51.486;6.610;2023-03-25T12:02:40;12.30;1.00
3005;DHT22;1512;51.486;6.610;2023-03-25T12:07:07;12.30;1.00
3005;DHT22;1512;51.486;6.610;2023-03-25T12:11:44;12.40;1.00
3005;DHT22;1512;51.486;6.610;2023-03-25T12:20:47;12.60;1.00
3005;DHT22;1512;51.486;6.610;2023-03-25T12:33:57;12.80;1.00
3005;DHT22;1512;51.486;6.610;2023-03-25T12:38:36;12.80;1.00
3005;DHT22;1512;51.486;6.610;2023-03-25T12:47:49;13.10;1.00
3005;DHT22;1512;51.486;6.610;2023-03-25T12:52:15;13.20;1.00
3005;DHT22;1512;51.486;6.610;2023-03-25T12:56:39;13.10;1.00
3005;DHT22;1512;51.486;6.610;2023-03-25T13:00:52;13.10;1.00
3005;DHT22;1512;51.486;6.610;2023-03-25T13:05:04;13.10;1.00
3005;DHT22;1512;51.486;6.610;2023-03-25T13:09:23;13.00;1.00
3005;DHT22;1512;51.486;6.610;2023-03-25T13:13:33;13.20;1.00
3005;DHT22;1512;51.486;6.610;2023-03-25T13:17:52;12.80;1.00
3005;DHT22;1512;51.486;6.610;2023-03-25T13:22:15;12.60;1.00
3005;DHT22;1512;51.486;6.610;2023-03-25T13:26:27;12.50;1.00
3005;DHT22;1512;51.486;6.610;2023-03-25T13:30:38;12.40;1.00
3005;DHT22;1512;51.486;6.610;2023-03-25T13:34:56;12.20;1.00
3005;DHT22;1512;51.486;6.610;2023-03-25T13:39:05;11.90;1.00
3005;DHT22;1512;51.486;6.610;2023-03-25T13:43:25;11.70;1.00
3005;DHT22;1512;51.486;6.610;2023-03-25T13:47:40;11.60;1.00
3005;DHT22;1512;51.486;6.610;2023-03-25T13:51:44;11.40;1.00
3005;DHT22;1512;51.486;6.610;2023-03-25T13:56:24;11.50;1.00
3005;DHT22;1512;51.486;6.610;2023-03-25T14:05:25;11.60;1.00
3005;DHT22;1512;51.486;6.610;2023-03-25T14:10:06;11.50;1.00
3005;DHT22;1512;51.486;6.610;2023-03-25T14:14:16;11.40;1.00
3005;DHT22;1512;51.486;6.610;2023-03-25T14:18:26;11.20;1.00
3005;DHT22;1512;51.486;6.610;2023-03-25T14:22:39;11.00;1.00
3005;DHT22;1512;51.486;6.610;2023-03-25T14:27:01;10.90;1.00
3005;DHT22;1512;51.486;6.610;2023-03-25T14:35:47;11.00;1.00
3005;DHT22;1512;51.486;6.610;2023-03-25T14:39:58;11.30;1.00
3005;DHT22;1512;51.486;6.610;2023-03-25T14:44:18;11.40;1.00
3005;DHT22;1512;51.486;6.610;2023-03-25T14:48:33;11.30;1.00
3005;DHT22;1512;51.486;6.610;2023-03-25T14:52:47;11.20;1.00
3005;DHT22;1512;51.486;6.610;2023-03-25T14:57:21;11.10;1.00
3005;DHT22;1512;51.486;6.610;2023-03-25T15:01:33;11.10;1.00
3005;DHT22;1512;51.486;6.610;2023-03-25T15:05:44;11.20;1.00
3005;DHT22;1512;51.486;6.610;2023-03-25T15:09:54;11.30;1.00
3005;DHT22;1512;51.486;6.610;2023-03-25T15:14:06;11.30;1.00
3005;DHT22;1512;51.486;6.610;2023-03-25T15:22:46;11.50;1.00
3005;DHT22;1512;51.486;6.610;2023-03-25T15:26:58;11.60;1.00
3005;DHT22;1512;51.486;6.610;2023-03-25T15:31:41;11.60;1.00
3005;DHT22;1512;51.486;6.610;2023-03-25T15:49:16;11.60;1.00
3005;DHT22;1512;51.486;6.610;2023-03-25T15:58:02;12.00;1.00
3005;DHT22;1512;51.486;6.610;2023-03-25T16:02:02;12.00;1.00
3005;DHT22;1512;51.486;6.610;2023-03-25T16:06:13;12.00;1.00
3005;DHT22;1512;51.486;6.610;2023-03-25T16:10:28;12.00;1.00
3005;DHT22;1512;51.486;6.610;2023-03-25T16:14:41;11.90;1.00
3005;DHT22;1512;51.486;6.610;2023-03-25T16:18:50;11.90;1.00
3005;DHT22;1512;51.486;6.610;2023-03-25T16:23:04;11.80;1.00
3005;DHT22;1512;51.486;6.610;2023-03-25T16:27:22;11.80;1.00
3005;DHT22;1512;51.486;6.610;2023-03-25T16:31:32;11.80;1.00
3005;DHT22;1512;51.486;6.610;2023-03-25T16:40:07;11.70;1.00
3005;DHT22;1512;51.486;6.610;2023-03-25T16:44:21;11.80;1.00
3005;DHT22;1512;51.486;6.610;2023-03-25T16:48:35;12.00;1.00
3005;DHT22;1512;51.486;6.610;2023-03-25T16:52:44;11.90;1.00
3005;DHT22;1512;51.486;6.610;2023-03-25T16:56:54;11.80;1.00
3005;DHT22;1512;51.486;6.610;2023-03-25T17:01:13;11.80;1.00
3005;DHT22;1512;51.486;6.610;2023-03-25T17:05:25;11.80;1.00
3005;DHT22;1512;51.486;6.610;2023-03-25T17:09:35;11.70;1.00
3005;DHT22;1512;51.486;6.610;2023-03-25T17:13:47;11.60;1.00
3005;DHT22;1512;51.486;6.610;2023-03-25T17:17:58;11.60;1.00
3005;DHT22;1512;51.486;6.610;2023-03-25T17:22:14;11.60;1.00
3005;DHT22;1512;51.486;6.610;2023-03-25T17:26:33;11.50;1.00
3005;DHT22;1512;51.486;6.610;2023-03-25T17:30:44;11.40;1.00
3005;DHT22;1512;51.486;6.610;2023-03-25T17:35:00;11.30;1.00
3005;DHT22;1512;51.486;6.610;2023-03-25T17:39:22;11.20;1.00
3005;DHT22;1512;51.486;6.610;2023-03-25T17:43:34;11.10;1.00
3005;DHT22;1512;51.486;6.610;2023-03-25T17:47:44;11.00;1.00
3005;DHT22;1512;51.486;6.610;2023-03-25T17:51:53;11.00;1.00
3005;DHT22;1512;51.486;6.610;2023-03-25T17:56:02;10.90;1.00
3005;DHT22;1512;51.486;6.610;2023-03-25T18:00:14;10.90;1.00
3005;DHT22;1512;51.486;6.610;2023-03-25T18:04:26;10.80;1.00
3005;DHT22;1512;51.486;6.610;2023-03-25T18:08:34;10.90;1.00
3005;DHT22;1512;51.486;6.610;2023-03-25T18:12:43;10.80;1.00
3005;DHT22;1512;51.486;6.610;2023-03-25T18:16:53;10.80;1.00
3005;DHT22;1512;51.486;6.610;2023-03-25T18:21:15;10.90;1.00
3005;DHT22;1512;51.486;6.610;2023-03-25T18:25:24;10.90;1.00
3005;DHT22;1512;51.486;6.610;2023-03-25T18:29:33;10.90;1.00
3005;DHT22;1512;51.486;6.610;2023-03-25T18:33:47;10.80;1.00
3005;DHT22;1512;51.486;6.610;2023-03-25T18:37:56;10.80;1.00
3005;DHT22;1512;51.486;6.610;2023-03-25T18:42:06;10.70;1.00
3005;DHT22;1512;51.486;6.610;2023-03-25T18:46:15;10.70;1.00
3005;DHT22;1512;51.486;6.610;2023-03-25T18:54:38;10.70;1.00
3005;DHT22;1512;51.486;6.610;2023-03-25T18:58:47;10.80;1.00
3005;DHT22;1512;51.486;6.610;2023-03-25T19:02:56;10.70;1.00
3005;DHT22;1512;51.486;6.610;2023-03-25T19:07:05;10.80;1.00
3005;DHT22;1512;51.486;6.610;2023-03-25T19:11:14;10.80;1.00
3005;DHT22;1512;51.486;6.610;2023-03-25T19:15:26;10.80;1.00
3005;DHT22;1512;51.486;6.610;2023-03-25T19:19:35;10.80;1.00
3005;DHT22;1512;51.486;6.610;2023-03-25T19:23:45;10.80;1.00
3005;DHT22;1512;51.486;6.610;2023-03-25T19:27:54;10.70;1.00
3005;DHT22;1512;51.486;6.610;2023-03-25T19:32:04;10.70;1.00
3005;DHT22;1512;51.486;6.610;2023-03-25T19:36:15;10.70;1.00
3005;DHT22;1512;51.486;6.610;2023-03-25T19:40:27;10.60;1.00
3005;DHT22;1512;51.486;6.610;2023-03-25T19:44:36;10.30;1.00
3005;DHT22;1512;51.486;6.610;2023-03-25T19:48:44;10.10;47.80
3005;DHT22;1512;51.486;6.610;2023-03-25T19:52:54;10.00;99.90
3005;DHT22;1512;51.486;6.610;2023-03-25T19:57:03;10.10;32.90
3005;DHT22;1512;51.486;6.610;2023-03-25T20:01:12;10.00;18.10
3005;DHT22;1512;51.486;6.610;2023-03-25T20:05:21;9.90;1.00
3005;DHT22;1512;51.486;6.610;2023-03-25T20:09:31;9.80;1.00
3005;DHT22;1512;51.486;6.610;2023-03-25T20:13:40;9.70;1.00
3005;DHT22;1512;51.486;6.610;2023-03-25T20:17:50;9.60;1.00
3005;DHT22;1512;51.486;6.610;2023-03-25T20:21:59;9.60;1.00
3005;DHT22;1512;51.486;6.610;2023-03-25T20:26:29;9.50;1.00
3005;DHT22;1512;51.486;6.610;2023-03-25T20:30:37;9.50;1.00
3005;DHT22;1512;51.486;6.610;2023-03-25T20:34:47;9.30;1.00
3005;DHT22;1512;51.486;6.610;2023-03-25T20:38:56;9.20;1.00
3005;DHT22;1512;51.486;6.610;2023-03-25T20:43:25;9.20;1.00
3005;DHT22;1512;51.486;6.610;2023-03-25T20:47:34;9.10;11.20
3005;DHT22;1512;51.486;6.610;2023-03-25T20:51:43;9.00;99.90
3005;DHT22;1512;51.486;6.610;2023-03-25T20:55:52;9.00;99.90
3005;DHT22;1512;51.486;6.610;2023-03-25T21:00:01;8.80;99.90
3005;DHT22;1512;51.486;6.610;2023-03-25T21:04:11;8.70;1.00
3005;DHT22;1512;51.486;6.610;2023-03-25T21:08:20;8.60;1.00
3005;DHT22;1512;51.486;6.610;2023-03-25T21:12:31;8.60;1.00
3005;DHT22;1512;51.486;6.610;2023-03-25T21:16:43;8.60;1.00
3005;DHT22;1512;51.486;6.610;2023-03-25T21:20:53;8.60;1.00
3005;DHT22;1512;51.486;6.610;2023-03-25T21:25:02;8.60;1.00
3005;DHT22;1512;51.486;6.610;2023-03-25T21:33:27;8.60;1.00
3005;DHT22;1512;51.486;6.610;2023-03-25T21:37:36;8.50;1.00
3005;DHT22;1512;51.486;6.610;2023-03-25T21:41:46;8.60;99.90
3005;DHT22;1512;51.486;6.610;2023-03-25T21:45:55;8.60;1.00
3005;DHT22;1512;51.486;6.610;2023-03-25T21:50:07;8.60;99.90
3005;DHT22;1512;51.486;6.610;2023-03-25T21:54:17;8.70;99.90
3005;DHT22;1512;51.486;6.610;2023-03-25T21:58:27;8.80;1.00
3005;DHT22;1512;51.486;6.610;2023-03-25T22:02:36;8.90;94.10
3005;DHT22;1512;51.486;6.610;2023-03-25T22:06:44;8.70;1.00
3005;DHT22;1512;51.486;6.610;2023-03-25T22:11:05;8.80;99.90
3005;DHT22;1512;51.486;6.610;2023-03-25T22:15:14;8.70;99.90
3005;DHT22;1512;51.486;6.610;2023-03-25T22:19:23;8.80;99.90
3005;DHT22;1512;51.486;6.610;2023-03-25T22:23:55;8.70;1.00
3005;DHT22;1512;51.486;6.610;2023-03-25T22:28:04;8.80;99.90
3005;DHT22;1512;51.486;6.610;2023-03-25T22:32:13;8.70;83.70
3005;DHT22;1512;51.486;6.610;2023-03-25T22:36:22;8.70;92.50
3005;DHT22;1512;51.486;6.610;2023-03-25T22:40:30;8.70;1.00
3005;DHT22;1512;51.486;6.610;2023-03-25T22:44:39;8.70;1.00
3005;DHT22;1512;51.486;6.610;2023-03-25T22:48:50;8.70;1.00
3005;DHT22;1512;51.486;6.610;2023-03-25T22:53:17;8.60;1.00
3005;DHT22;1512;51.486;6.610;2023-03-25T22:57:26;8.70;99.90
3005;DHT22;1512;51.486;6.610;2023-03-25T23:01:35;8.70;99.90
3005;DHT22;1512;51.486;6.610;2023-03-25T23:06:00;8.70;99.90
3005;DHT22;1512;51.486;6.610;2023-03-25T23:10:08;8.70;99.90
3005;DHT22;1512;51.486;6.610;2023-03-25T23:14:19;8.70;99.90
3005;DHT22;1512;51.486;6.610;2023-03-25T23:18:28;8.60;1.00
3005;DHT22;1512;51.486;6.610;2023-03-25T23:22:37;8.60;1.00
3005;DHT22;1512;51.486;6.610;2023-03-25T23:26:46;8.60;1.00
3005;DHT22;1512;51.486;6.610;2023-03-25T23:30:56;8.60;99.90
3005;DHT22;1512;51.486;6.610;2023-03-25T23:35:05;8.70;1.00
3005;DHT22;1512;51.486;6.610;2023-03-25T23:39:16;8.70;99.90
3005;DHT22;1512;51.486;6.610;2023-03-25T23:43:27;8.70;99.90
3005;DHT22;1512;51.486;6.610;2023-03-25T23:47:55;8.80;99.90
3005;DHT22;1512;51.486;6.610;2023-03-25T23:52:05;8.80;99.90
3005;DHT22;1512;51.486;6.610;2023-03-25T23:56:17;8.90;1.00
